createdAt,value
2023-02-27T00:02:04.077Z,2.13
2023-02-27T00:04:31.207Z,1.30
2023-02-27T00:06:58.421Z,1.58
2023-02-27T00:09:25.765Z,1.08
2023-02-27T00:11:52.964Z,0.98
2023-02-27T00:14:20.604Z,0.90
2023-02-27T00:16:47.944Z,1.02
2023-02-27T00:19:15.144Z,0.88
2023-02-27T00:21:44.656Z,1.27
2023-02-27T00:24:12.068Z,1.30
2023-02-27T00:26:39.436Z,1.13
2023-02-27T00:29:07.157Z,1.13
2023-02-27T00:31:34.903Z,1.48
2023-02-27T00:34:02.942Z,1.27
2023-02-27T00:36:30.083Z,1.40
2023-02-27T00:38:58.180Z,0.93
2023-02-27T00:41:26.496Z,0.90
2023-02-27T00:43:53.945Z,1.00
2023-02-27T00:46:21.177Z,1.15
2023-02-27T00:48:48.388Z,2.45
2023-02-27T00:51:15.751Z,1.45
2023-02-27T00:53:42.887Z,1.35
2023-02-27T00:56:10.154Z,1.15
2023-02-27T00:58:37.387Z,1.30
2023-02-27T01:01:04.851Z,1.40
2023-02-27T01:03:32.101Z,1.17
2023-02-27T01:05:59.347Z,1.13
2023-02-27T01:08:26.523Z,1.40
2023-02-27T01:10:57.430Z,1.90
2023-02-27T01:13:24.778Z,1.48
2023-02-27T01:15:53.070Z,0.98
2023-02-27T01:18:20.282Z,1.02
2023-02-27T01:20:53.590Z,1.05
2023-02-27T01:23:21.822Z,1.52
2023-02-27T01:25:50.136Z,1.10
2023-02-27T01:28:17.373Z,1.20
2023-02-27T01:30:44.957Z,1.08
2023-02-27T01:33:14.871Z,1.08
2023-02-27T01:35:42.036Z,0.95
2023-02-27T01:38:09.329Z,1.10
2023-02-27T01:40:41.312Z,1.20
2023-02-27T01:43:17.509Z,1.40
2023-02-27T01:45:48.533Z,1.30
2023-02-27T01:48:25.678Z,1.13
2023-02-27T01:51:14.137Z,1.50
2023-02-27T01:53:44.878Z,1.38
2023-02-27T01:56:22.828Z,1.60
2023-02-27T01:58:53.542Z,1.60
2023-02-27T02:01:22.284Z,1.60
2023-02-27T02:04:09.369Z,2.55
2023-02-27T02:06:40.046Z,1.38
2023-02-27T02:09:08.780Z,1.58
2023-02-27T02:11:36.515Z,1.25
2023-02-27T02:14:04.909Z,2.53
2023-02-27T02:17:09.914Z,1.45
2023-02-27T02:20:16.549Z,0.98
2023-02-27T02:23:17.505Z,0.85
2023-02-27T02:26:33.147Z,1.00
2023-02-27T02:29:19.021Z,1.10
2023-02-27T02:32:16.120Z,2.15
2023-02-27T02:34:55.210Z,1.00
2023-02-27T02:37:40.645Z,1.00
2023-02-27T02:40:10.953Z,0.93
2023-02-27T02:42:49.153Z,1.20
2023-02-27T02:45:33.541Z,1.38
2023-02-27T02:48:13.541Z,0.90
2023-02-27T02:51:05.003Z,1.88
2023-02-27T02:53:48.511Z,1.10
2023-02-27T02:56:27.664Z,0.85
2023-02-27T02:59:07.685Z,1.10
2023-02-27T03:01:51.751Z,1.42
2023-02-27T03:04:29.257Z,1.30
2023-02-27T03:07:04.133Z,1.15
2023-02-27T03:09:37.800Z,1.20
2023-02-27T03:12:10.799Z,1.17
2023-02-27T03:14:50.855Z,1.50
2023-02-27T03:17:43.901Z,1.00
2023-02-27T03:20:29.685Z,1.30
2023-02-27T03:23:04.942Z,1.45
2023-02-27T03:25:34.016Z,1.30
2023-02-27T03:28:09.208Z,1.15
2023-02-27T03:30:47.404Z,1.50
2023-02-27T03:33:20.702Z,1.10
2023-02-27T03:36:08.061Z,1.05
2023-02-27T03:38:48.340Z,1.30
2023-02-27T03:41:31.459Z,1.10
2023-02-27T03:44:43.239Z,1.58
2023-02-27T03:47:10.561Z,1.38
2023-02-27T03:49:38.676Z,1.40
2023-02-27T03:52:06.070Z,1.05
2023-02-27T03:54:39.755Z,1.25
2023-02-27T03:57:08.553Z,1.10
2023-02-27T03:59:38.065Z,1.67
2023-02-27T04:02:05.669Z,1.20
2023-02-27T04:04:35.792Z,1.17
2023-02-27T04:07:45.173Z,1.35
2023-02-27T04:10:32.939Z,1.95
2023-02-27T04:13:18.380Z,0.90
2023-02-27T04:16:06.580Z,1.35
2023-02-27T04:19:08.917Z,1.38
2023-02-27T04:22:06.861Z,1.10
2023-02-27T04:24:41.915Z,1.25
2023-02-27T04:27:37.514Z,1.40
2023-02-27T04:30:27.224Z,2.47
2023-02-27T04:33:03.486Z,1.38
2023-02-27T04:35:40.881Z,1.50
2023-02-27T04:38:21.349Z,1.40
2023-02-27T04:40:54.698Z,1.63
2023-02-27T04:43:24.789Z,1.55
2023-02-27T04:45:53.406Z,1.33
2023-02-27T04:48:35.716Z,1.20
2023-02-27T04:51:11.435Z,1.27
2023-02-27T04:53:53.782Z,1.63
2023-02-27T04:56:32.122Z,1.10
2023-02-27T04:59:05.440Z,1.25
2023-02-27T05:01:43.632Z,1.50
2023-02-27T05:04:15.745Z,1.30
2023-02-27T05:06:45.478Z,1.25
2023-02-27T05:09:26.336Z,1.25
2023-02-27T05:12:12.689Z,1.92
2023-02-27T05:15:13.162Z,2.08
2023-02-27T05:18:05.602Z,1.83
2023-02-27T05:21:00.454Z,1.55
2023-02-27T05:23:42.405Z,2.35
2023-02-27T05:26:44.922Z,2.15
2023-02-27T05:32:15.722Z,1.67
2023-02-27T05:34:53.933Z,1.83
2023-02-27T05:37:31.053Z,1.48
2023-02-27T05:40:00.757Z,1.95
2023-02-27T05:42:37.004Z,1.73
2023-02-27T05:45:12.329Z,1.30
2023-02-27T05:47:45.503Z,1.40
2023-02-27T05:50:26.554Z,1.60
2023-02-27T05:52:57.725Z,1.90
2023-02-27T05:55:33.750Z,1.58
2023-02-27T05:58:07.213Z,1.50
2023-02-27T06:01:00.521Z,2.17
2023-02-27T06:03:29.591Z,2.25
2023-02-27T06:05:59.638Z,1.60
2023-02-27T06:08:27.595Z,1.50
2023-02-27T06:10:55.372Z,1.70
2023-02-27T06:13:23.745Z,1.75
2023-02-27T06:15:51.429Z,1.88
2023-02-27T06:18:19.307Z,2.08
2023-02-27T06:20:47.545Z,2.00
2023-02-27T06:23:14.910Z,1.75
2023-02-27T06:25:44.933Z,2.30
2023-02-27T06:28:12.232Z,1.90
2023-02-27T06:30:39.552Z,1.48
2023-02-27T06:33:06.884Z,1.77
2023-02-27T06:35:34.193Z,2.20
2023-02-27T06:38:01.685Z,1.70
2023-02-27T06:40:29.168Z,2.42
2023-02-27T06:42:56.420Z,3.95
2023-02-27T06:45:24.423Z,3.67
2023-02-27T06:47:51.746Z,3.25
2023-02-27T06:50:18.984Z,3.53
2023-02-27T06:52:46.198Z,4.25
2023-02-27T06:55:13.466Z,4.93
2023-02-27T06:57:40.770Z,3.53
2023-02-27T07:00:10.072Z,5.28
2023-02-27T07:02:37.259Z,5.20
2023-02-27T07:05:08.099Z,5.32
2023-02-27T07:07:37.977Z,3.50
2023-02-27T07:10:08.311Z,3.53
2023-02-27T07:12:35.475Z,3.60
2023-02-27T07:15:02.874Z,3.03
2023-02-27T07:17:30.290Z,3.75
2023-02-27T07:19:57.745Z,3.40
2023-02-27T07:22:24.919Z,2.50
2023-02-27T07:24:52.127Z,2.75
2023-02-27T07:27:19.251Z,3.00
2023-02-27T07:29:46.588Z,3.42
2023-02-27T07:32:13.812Z,3.03
2023-02-27T07:34:41.015Z,3.53
2023-02-27T07:37:08.283Z,3.72
2023-02-27T07:39:35.664Z,3.08
2023-02-27T07:42:02.977Z,3.38
2023-02-27T07:44:30.303Z,2.72
2023-02-27T07:46:57.451Z,3.70
2023-02-27T07:49:24.700Z,3.97
2023-02-27T07:51:51.947Z,3.65
2023-02-27T07:54:19.380Z,3.25
2023-02-27T07:56:46.559Z,3.97
2023-02-27T07:59:14.020Z,4.45
2023-02-27T08:01:41.195Z,3.92
2023-02-27T08:04:08.540Z,4.65
2023-02-27T08:06:35.667Z,3.75
2023-02-27T08:09:02.990Z,4.00
2023-02-27T08:11:30.239Z,3.42
2023-02-27T08:14:01.855Z,4.13
2023-02-27T08:16:31.413Z,3.72
2023-02-27T08:18:59.965Z,3.47
2023-02-27T08:21:27.775Z,4.22
2023-02-27T08:23:55.365Z,3.63
2023-02-27T08:26:22.997Z,4.22
2023-02-27T08:28:50.296Z,3.35
2023-02-27T08:31:17.476Z,4.15
2023-02-27T08:33:44.746Z,3.42
2023-02-27T08:36:11.930Z,3.40
2023-02-27T08:38:39.132Z,3.65
2023-02-27T08:41:06.332Z,3.17
2023-02-27T08:43:33.570Z,3.38
2023-02-27T08:46:00.747Z,3.08
2023-02-27T08:48:27.862Z,3.22
2023-02-27T08:50:57.417Z,2.63
2023-02-27T08:53:25.469Z,3.63
2023-02-27T08:55:53.343Z,2.30
2023-02-27T08:58:20.610Z,3.40
2023-02-27T09:00:47.962Z,3.80
2023-02-27T09:03:15.773Z,3.67
2023-02-27T09:05:43.628Z,2.95
2023-02-27T09:08:11.797Z,2.58
2023-02-27T09:10:39.051Z,2.83
2023-02-27T09:13:06.502Z,2.83
2023-02-27T09:15:38.013Z,2.65
2023-02-27T09:18:07.065Z,2.45
2023-02-27T09:20:40.340Z,2.33
2023-02-27T09:23:08.136Z,2.58
2023-02-27T09:25:35.357Z,2.25
2023-02-27T09:28:02.638Z,3.13
2023-02-27T09:30:30.267Z,2.42
2023-02-27T09:32:57.459Z,2.88
2023-02-27T09:35:25.519Z,2.88
2023-02-27T09:37:53.252Z,2.60
2023-02-27T09:40:30.987Z,2.58
2023-02-27T09:43:02.385Z,3.00
2023-02-27T09:45:32.069Z,2.13
2023-02-27T09:48:28.838Z,1.90
2023-02-27T09:50:57.275Z,2.17
2023-02-27T09:53:40.803Z,1.70
2023-02-27T09:56:17.557Z,1.60
2023-02-27T09:58:55.826Z,1.75
2023-02-27T10:01:32.572Z,1.98
2023-02-27T10:04:24.676Z,2.63
2023-02-27T10:07:13.204Z,1.80
2023-02-27T10:09:47.140Z,1.75
2023-02-27T10:12:17.425Z,1.77
2023-02-27T10:14:47.726Z,2.05
2023-02-27T10:17:51.267Z,2.10
2023-02-27T10:20:30.812Z,2.13
2023-02-27T10:23:20.056Z,1.90
2023-02-27T10:25:50.690Z,2.70
2023-02-27T10:28:20.168Z,1.48
2023-02-27T10:30:53.297Z,1.17
2023-02-27T10:33:35.661Z,2.10
2023-02-27T10:36:04.098Z,1.83
2023-02-27T10:38:42.520Z,1.20
2023-02-27T10:41:14.759Z,1.60
2023-02-27T10:46:23.132Z,2.00
2023-02-27T10:48:50.998Z,1.08
2023-02-27T10:51:38.420Z,1.45
2023-02-27T10:54:25.486Z,1.45
2023-02-27T10:57:01.747Z,1.27
2023-02-27T10:59:31.409Z,2.15
2023-02-27T11:02:21.072Z,1.80
2023-02-27T11:04:57.104Z,1.63
2023-02-27T11:07:39.295Z,1.95
2023-02-27T11:10:12.390Z,2.35
2023-02-27T11:12:42.237Z,1.50
2023-02-27T11:15:15.679Z,1.65
2023-02-27T11:17:43.813Z,1.85
2023-02-27T11:20:32.422Z,2.30
2023-02-27T11:23:14.291Z,1.30
2023-02-27T11:25:42.456Z,1.33
2023-02-27T11:28:30.832Z,1.35
2023-02-27T11:31:07.503Z,1.83
2023-02-27T11:34:01.302Z,3.20
2023-02-27T11:36:45.578Z,1.27
2023-02-27T11:39:33.509Z,1.20
2023-02-27T11:42:17.561Z,1.38
2023-02-27T11:44:54.404Z,1.00
2023-02-27T11:47:32.647Z,1.48
2023-02-27T11:50:06.008Z,1.17
2023-02-27T11:52:45.302Z,1.00
2023-02-27T11:55:19.737Z,0.65
2023-02-27T11:57:52.499Z,0.90
2023-02-27T12:00:23.516Z,0.80
2023-02-27T12:03:31.460Z,1.00
2023-02-27T12:06:04.912Z,1.17
2023-02-27T12:08:36.830Z,0.80
2023-02-27T12:11:16.079Z,1.20
2023-02-27T12:13:49.565Z,0.90
2023-02-27T12:16:38.090Z,1.00
2023-02-27T12:19:16.036Z,1.35
2023-02-27T12:22:13.578Z,1.20
2023-02-27T12:24:57.635Z,0.75
2023-02-27T12:27:43.957Z,0.90
2023-02-27T12:30:17.835Z,0.52
2023-02-27T12:33:02.683Z,0.85
2023-02-27T12:35:33.208Z,1.00
2023-02-27T12:38:01.688Z,1.05
2023-02-27T12:40:37.957Z,1.38
2023-02-27T12:43:18.929Z,1.00
2023-02-27T12:46:05.237Z,0.98
2023-02-27T12:49:01.145Z,1.60
2023-02-27T12:51:34.437Z,1.10
2023-02-27T12:54:17.096Z,0.93
2023-02-27T12:57:11.791Z,1.60
2023-02-27T13:00:12.621Z,1.88
2023-02-27T13:03:15.289Z,1.30
2023-02-27T13:06:19.834Z,1.20
2023-02-27T13:09:20.702Z,1.80
2023-02-27T13:12:13.372Z,1.08
2023-02-27T13:14:57.004Z,1.20
2023-02-27T13:17:31.644Z,1.40
2023-02-27T13:20:19.069Z,0.88
2023-02-27T13:23:07.989Z,1.38
2023-02-27T13:25:38.133Z,1.20
2023-02-27T13:28:08.914Z,0.77
2023-02-27T13:30:59.811Z,1.08
2023-02-27T13:33:39.118Z,2.10
2023-02-27T13:36:25.180Z,1.35
2023-02-27T13:38:54.845Z,1.25
2023-02-27T13:41:25.015Z,1.27
2023-02-27T13:44:00.064Z,1.05
2023-02-27T13:46:28.450Z,1.13
2023-02-27T13:48:55.702Z,1.10
2023-02-27T13:51:53.733Z,1.30
2023-02-27T13:54:39.367Z,1.58
2023-02-27T13:57:08.979Z,1.08
2023-02-27T13:59:39.763Z,1.60
2023-02-27T14:02:09.827Z,1.15
2023-02-27T14:04:45.996Z,1.35
2023-02-27T14:07:18.795Z,0.95
2023-02-27T14:09:48.952Z,1.88
2023-02-27T14:12:45.491Z,1.00
2023-02-27T14:15:22.112Z,0.80
2023-02-27T14:18:12.658Z,1.73
2023-02-27T14:20:41.256Z,1.35
2023-02-27T14:23:17.708Z,1.50
2023-02-27T14:25:58.655Z,1.60
2023-02-27T14:28:31.324Z,1.20
2023-02-27T14:31:06.180Z,0.98
2023-02-27T14:33:48.618Z,1.65
2023-02-27T14:38:53.333Z,1.02
2023-02-27T14:41:29.950Z,2.13
2023-02-27T14:43:58.502Z,1.38
2023-02-27T14:46:38.569Z,1.58
2023-02-27T14:49:19.895Z,0.90
2023-02-27T14:51:47.579Z,1.35
2023-02-27T14:54:23.031Z,1.10
2023-02-27T14:57:00.498Z,1.15
2023-02-27T14:59:33.528Z,1.13
2023-02-27T15:02:04.348Z,1.13
2023-02-27T15:04:33.290Z,0.98
2023-02-27T15:07:01.159Z,1.30
2023-02-27T15:09:37.890Z,0.95
2023-02-27T15:12:05.415Z,1.50
2023-02-27T15:14:36.518Z,1.35
2023-02-27T15:17:05.182Z,1.40
2023-02-27T15:19:32.592Z,1.25
2023-02-27T15:22:05.078Z,1.17
2023-02-27T15:24:48.905Z,0.88
2023-02-27T15:27:20.496Z,1.48
2023-02-27T15:29:56.186Z,2.20
2023-02-27T15:32:31.067Z,0.70
2023-02-27T15:35:01.754Z,1.00
2023-02-27T15:37:34.284Z,1.10
2023-02-27T15:40:02.336Z,1.25
2023-02-27T15:42:36.653Z,1.58
2023-02-27T15:45:06.814Z,1.35
2023-02-27T15:47:35.641Z,1.10
2023-02-27T15:50:18.160Z,1.70
2023-02-27T15:53:00.696Z,1.35
2023-02-27T15:55:32.538Z,1.20
2023-02-27T15:58:04.253Z,1.08
2023-02-27T16:00:36.004Z,1.48
2023-02-27T16:03:07.686Z,0.77
2023-02-27T16:05:39.005Z,1.20
2023-02-27T16:08:07.171Z,1.58
2023-02-27T16:10:42.531Z,1.20
2023-02-27T16:13:28.069Z,0.90
2023-02-27T16:16:00.570Z,1.00
2023-02-27T16:18:38.683Z,1.10
2023-02-27T16:21:12.560Z,1.52
2023-02-27T16:23:40.307Z,1.13
2023-02-27T16:26:32.424Z,1.02
2023-02-27T16:29:05.731Z,1.50
2023-02-27T16:31:39.073Z,1.25
2023-02-27T16:34:35.553Z,1.17
2023-02-27T16:37:21.615Z,1.20
2023-02-27T16:39:52.419Z,0.80
2023-02-27T16:42:20.089Z,0.90
2023-02-27T16:44:47.728Z,0.93
2023-02-27T16:47:15.277Z,1.50
2023-02-27T16:49:45.022Z,0.70
2023-02-27T16:52:12.889Z,1.00
2023-02-27T16:54:40.655Z,0.82
2023-02-27T16:57:12.429Z,1.77
2023-02-27T16:59:41.408Z,1.13
2023-02-27T17:02:13.935Z,2.10
2023-02-27T17:04:47.886Z,1.25
2023-02-27T17:07:17.483Z,0.90
2023-02-27T17:09:46.533Z,1.48
2023-02-27T17:12:14.350Z,1.67
2023-02-27T17:14:41.713Z,1.33
2023-02-27T17:17:11.031Z,1.67
2023-02-27T17:19:38.887Z,1.20
2023-02-27T17:22:06.537Z,0.98
2023-02-27T17:24:34.807Z,1.05
2023-02-27T17:27:02.146Z,0.93
2023-02-27T17:29:29.361Z,0.90
2023-02-27T17:31:57.689Z,0.77
2023-02-27T17:34:25.314Z,0.90
2023-02-27T17:36:53.414Z,1.00
2023-02-27T17:39:21.140Z,1.17
2023-02-27T17:41:48.857Z,1.20
2023-02-27T17:44:18.670Z,1.33
2023-02-27T17:46:46.046Z,1.08
2023-02-27T17:49:13.400Z,1.35
2023-02-27T17:51:44.581Z,1.48
2023-02-27T17:54:11.922Z,1.30
2023-02-27T17:56:39.677Z,0.95
2023-02-27T17:59:08.623Z,1.25
2023-02-27T18:01:36.771Z,1.40
2023-02-27T18:04:05.149Z,1.27
2023-02-27T18:06:32.448Z,1.38
2023-02-27T18:09:02.565Z,1.40
2023-02-27T18:11:29.798Z,1.33
2023-02-27T18:13:57.136Z,2.10
2023-02-27T18:16:24.451Z,1.80
2023-02-27T18:18:51.749Z,2.95
2023-02-27T18:21:24.586Z,2.00
2023-02-27T18:23:56.361Z,1.65
2023-02-27T18:26:31.256Z,4.00
2023-02-27T18:29:08.684Z,1.92
2023-02-27T18:31:39.897Z,2.42
2023-02-27T18:34:08.022Z,1.67
2023-02-27T18:36:36.374Z,2.15
2023-02-27T18:39:05.118Z,1.45
2023-02-27T18:41:33.316Z,1.50
2023-02-27T18:44:01.055Z,1.50
2023-02-27T18:46:29.321Z,1.35
2023-02-27T18:49:01.002Z,1.30
2023-02-27T18:51:28.814Z,1.40
2023-02-27T18:53:56.380Z,1.75
2023-02-27T18:56:25.323Z,1.40
2023-02-27T18:58:53.938Z,1.48
2023-02-27T19:01:30.056Z,1.25
2023-02-27T19:04:03.631Z,1.20
2023-02-27T19:06:33.153Z,1.23
2023-02-27T19:09:00.526Z,1.38
2023-02-27T19:11:33.296Z,1.70
2023-02-27T19:14:03.815Z,1.58
2023-02-27T19:16:31.566Z,1.45
2023-02-27T19:19:00.568Z,2.38
2023-02-27T19:21:28.647Z,1.42
2023-02-27T19:23:56.022Z,1.75
2023-02-27T19:26:24.549Z,1.20
2023-02-27T19:28:53.860Z,1.80
2023-02-27T19:31:23.718Z,2.10
2023-02-27T19:33:51.404Z,1.40
2023-02-27T19:36:20.777Z,1.58
2023-02-27T19:38:48.612Z,1.40
2023-02-27T19:41:17.184Z,2.00
2023-02-27T19:43:45.776Z,1.23
2023-02-27T19:46:15.567Z,1.17
2023-02-27T19:48:43.488Z,1.60
2023-02-27T19:51:13.465Z,1.65
2023-02-27T19:53:42.277Z,1.60
2023-02-27T19:56:15.870Z,1.17
2023-02-27T19:58:43.192Z,2.15
2023-02-27T20:01:10.525Z,1.95
2023-02-27T20:03:38.158Z,1.30
2023-02-27T20:06:06.101Z,1.15
2023-02-27T20:08:34.136Z,1.30
2023-02-27T20:11:03.611Z,1.10
2023-02-27T20:13:31.505Z,1.42
2023-02-27T20:16:04.639Z,2.70
2023-02-27T20:18:32.455Z,1.27
2023-02-27T20:21:15.107Z,2.83
2023-02-27T20:23:44.231Z,1.20
2023-02-27T20:26:18.123Z,2.65
2023-02-27T20:28:46.699Z,1.58
2023-02-27T20:31:15.670Z,1.95
2023-02-27T20:33:43.018Z,1.42
2023-02-27T20:36:12.321Z,1.55
2023-02-27T20:38:40.352Z,1.83
2023-02-27T20:41:14.364Z,1.80
2023-02-27T20:43:45.532Z,2.38
2023-02-27T20:46:15.978Z,1.35
2023-02-27T20:48:44.496Z,2.42
2023-02-27T20:51:17.227Z,1.27
2023-02-27T20:53:47.411Z,1.52
2023-02-27T20:56:15.324Z,2.20
2023-02-27T20:58:42.680Z,1.20
2023-02-27T21:04:43.490Z,1.02
2023-02-27T21:07:17.739Z,1.02
2023-02-27T21:09:45.532Z,1.92
2023-02-27T21:12:13.350Z,1.83
2023-02-27T21:14:44.348Z,2.80
2023-02-27T21:17:12.434Z,3.03
2023-02-27T21:19:40.008Z,1.80
2023-02-27T21:22:11.630Z,1.15
2023-02-27T21:24:39.227Z,1.30
2023-02-27T21:27:06.817Z,2.10
2023-02-27T21:29:34.321Z,1.10
2023-02-27T21:32:02.094Z,2.38
2023-02-27T21:34:30.115Z,2.05
2023-02-27T21:36:57.549Z,1.50
2023-02-27T21:39:28.297Z,1.33
2023-02-27T21:41:56.468Z,1.10
2023-02-27T21:44:25.258Z,1.30
2023-02-27T21:46:53.307Z,1.27
2023-02-27T21:49:27.640Z,1.52
2023-02-27T21:51:55.634Z,1.65
2023-02-27T21:54:23.221Z,1.30
2023-02-27T21:57:01.665Z,1.33
2023-02-27T21:59:29.361Z,1.80
2023-02-27T22:01:57.917Z,1.88
2023-02-27T22:04:25.466Z,2.03
2023-02-27T22:06:53.120Z,1.80
2023-02-27T22:09:20.898Z,2.85
2023-02-27T22:11:51.724Z,1.95
2023-02-27T22:14:27.024Z,1.52
2023-02-27T22:17:01.635Z,1.70
2023-02-27T22:19:42.366Z,1.02
2023-02-27T22:22:09.504Z,1.55
2023-02-27T22:24:37.740Z,1.58
2023-02-27T22:27:06.279Z,2.45
2023-02-27T22:29:38.797Z,2.35
2023-02-27T22:32:06.774Z,1.48
2023-02-27T22:34:34.514Z,1.80
2023-02-27T22:37:04.620Z,1.90
2023-02-27T22:39:39.805Z,2.28
2023-02-27T22:42:12.897Z,1.50
2023-02-27T22:44:40.461Z,1.63
2023-02-27T22:47:09.427Z,2.10
2023-02-27T22:49:39.424Z,1.63
2023-02-27T22:52:10.467Z,1.58
2023-02-27T22:54:43.992Z,1.52
2023-02-27T22:57:16.468Z,1.80
2023-02-27T22:59:49.221Z,1.30
2023-02-27T23:02:22.121Z,1.48
2023-02-27T23:04:54.264Z,1.70
2023-02-27T23:07:31.795Z,1.65
2023-02-27T23:09:59.406Z,1.33
2023-02-27T23:12:34.680Z,1.75
2023-02-27T23:15:03.851Z,1.27
2023-02-27T23:17:46.354Z,1.30
2023-02-27T23:20:20.408Z,1.30
2023-02-27T23:22:53.155Z,1.25
2023-02-27T23:25:27.518Z,1.50
2023-02-27T23:27:55.295Z,1.70
2023-02-27T23:30:23.096Z,2.42
2023-02-27T23:32:50.721Z,1.75
2023-02-27T23:35:23.322Z,1.90
2023-02-27T23:37:52.633Z,1.65
2023-02-27T23:40:28.104Z,1.65
2023-02-27T23:43:14.418Z,2.05
2023-02-27T23:45:42.104Z,1.95
2023-02-27T23:48:09.582Z,2.10
2023-02-27T23:50:43.861Z,2.40
2023-02-27T23:53:13.679Z,2.58
2023-02-27T23:55:41.647Z,2.00
2023-02-27T23:58:13.782Z,2.53
